sensor_id;sensor_type;location;lat;lon;timestamp;P1;durP1;ratioP1;P2;durP2;ratioP2
4434;SDS011;46552;52.150;8.428;2023-04-24T00:02:05;2.23;;;1.17;;
4434;SDS011;46552;52.150;8.428;2023-04-24T00:04:34;2.97;;;1.50;;
4434;SDS011;46552;52.150;8.428;2023-04-24T00:07:01;2.80;;;1.30;;
4434;SDS011;46552;52.150;8.428;2023-04-24T00:09:28;2.60;;;1.30;;
4434;SDS011;46552;52.150;8.428;2023-04-24T00:11:55;2.27;;;1.00;;
4434;SDS011;46552;52.150;8.428;2023-04-24T00:14:22;2.30;;;1.03;;
4434;SDS011;46552;52.150;8.428;2023-04-24T00:16:51;2.73;;;1.03;;
4434;SDS011;46552;52.150;8.428;2023-04-24T00:19:18;2.43;;;1.13;;
4434;SDS011;46552;52.150;8.428;2023-04-24T00:21:46;2.50;;;0.93;;
4434;SDS011;46552;52.150;8.428;2023-04-24T00:24:15;2.50;;;1.20;;
4434;SDS011;46552;52.150;8.428;2023-04-24T00:26:43;2.20;;;0.80;;
4434;SDS011;46552;52.150;8.428;2023-04-24T00:29:10;2.33;;;1.03;;
4434;SDS011;46552;52.150;8.428;2023-04-24T00:31:39;1.93;;;0.80;;
4434;SDS011;46552;52.150;8.428;2023-04-24T00:34:07;2.10;;;0.87;;
4434;SDS011;46552;52.150;8.428;2023-04-24T00:36:35;2.10;;;0.90;;
4434;SDS011;46552;52.150;8.428;2023-04-24T00:39:02;2.10;;;0.80;;
4434;SDS011;46552;52.150;8.428;2023-04-24T00:41:30;3.00;;;0.73;;
4434;SDS011;46552;52.150;8.428;2023-04-24T00:43:57;2.53;;;1.00;;
4434;SDS011;46552;52.150;8.428;2023-04-24T00:46:24;3.70;;;0.93;;
4434;SDS011;46552;52.150;8.428;2023-04-24T00:48:52;3.60;;;0.90;;
4434;SDS011;46552;52.150;8.428;2023-04-24T00:51:20;2.40;;;0.90;;
4434;SDS011;46552;52.150;8.428;2023-04-24T00:53:49;4.53;;;1.10;;
4434;SDS011;46552;52.150;8.428;2023-04-24T00:56:17;2.50;;;1.00;;
4434;SDS011;46552;52.150;8.428;2023-04-24T00:58:45;2.73;;;0.97;;
4434;SDS011;46552;52.150;8.428;2023-04-24T01:01:12;2.70;;;0.90;;
4434;SDS011;46552;52.150;8.428;2023-04-24T01:03:40;2.73;;;1.10;;
4434;SDS011;46552;52.150;8.428;2023-04-24T01:06:07;2.07;;;1.00;;
4434;SDS011;46552;52.150;8.428;2023-04-24T01:08:38;5.80;;;1.50;;
4434;SDS011;46552;52.150;8.428;2023-04-24T01:11:05;7.10;;;1.10;;
4434;SDS011;46552;52.150;8.428;2023-04-24T01:13:33;3.07;;;1.17;;
4434;SDS011;46552;52.150;8.428;2023-04-24T01:16:01;6.37;;;1.27;;
4434;SDS011;46552;52.150;8.428;2023-04-24T01:18:28;3.77;;;0.90;;
4434;SDS011;46552;52.150;8.428;2023-04-24T01:20:58;2.80;;;1.17;;
4434;SDS011;46552;52.150;8.428;2023-04-24T01:23:31;4.00;;;1.10;;
4434;SDS011;46552;52.150;8.428;2023-04-24T01:25:58;2.37;;;1.00;;
4434;SDS011;46552;52.150;8.428;2023-04-24T01:28:26;2.93;;;1.20;;
4434;SDS011;46552;52.150;8.428;2023-04-24T01:30:54;6.33;;;1.00;;
4434;SDS011;46552;52.150;8.428;2023-04-24T01:33:21;3.93;;;1.57;;
4434;SDS011;46552;52.150;8.428;2023-04-24T01:35:50;3.03;;;1.40;;
4434;SDS011;46552;52.150;8.428;2023-04-24T01:38:17;1.93;;;0.83;;
4434;SDS011;46552;52.150;8.428;2023-04-24T01:40:47;2.43;;;0.93;;
4434;SDS011;46552;52.150;8.428;2023-04-24T01:43:15;2.20;;;1.03;;
4434;SDS011;46552;52.150;8.428;2023-04-24T01:45:42;4.10;;;1.10;;
4434;SDS011;46552;52.150;8.428;2023-04-24T01:48:10;2.37;;;0.90;;
4434;SDS011;46552;52.150;8.428;2023-04-24T01:50:38;2.60;;;1.47;;
4434;SDS011;46552;52.150;8.428;2023-04-24T01:53:06;4.00;;;1.47;;
4434;SDS011;46552;52.150;8.428;2023-04-24T01:55:33;2.20;;;1.10;;
4434;SDS011;46552;52.150;8.428;2023-04-24T01:58:02;2.50;;;1.30;;
4434;SDS011;46552;52.150;8.428;2023-04-24T02:00:29;2.20;;;1.10;;
4434;SDS011;46552;52.150;8.428;2023-04-24T02:02:56;2.67;;;1.23;;
4434;SDS011;46552;52.150;8.428;2023-04-24T02:05:23;4.70;;;1.97;;
4434;SDS011;46552;52.150;8.428;2023-04-24T02:07:50;2.73;;;1.23;;
4434;SDS011;46552;52.150;8.428;2023-04-24T02:10:18;2.47;;;1.30;;
4434;SDS011;46552;52.150;8.428;2023-04-24T02:12:45;2.30;;;1.13;;
4434;SDS011;46552;52.150;8.428;2023-04-24T02:15:13;4.40;;;0.90;;
4434;SDS011;46552;52.150;8.428;2023-04-24T02:17:41;4.30;;;1.43;;
4434;SDS011;46552;52.150;8.428;2023-04-24T02:20:09;3.33;;;1.70;;
4434;SDS011;46552;52.150;8.428;2023-04-24T02:22:38;2.70;;;1.20;;
4434;SDS011;46552;52.150;8.428;2023-04-24T02:25:05;3.00;;;1.60;;
4434;SDS011;46552;52.150;8.428;2023-04-24T02:27:33;2.60;;;1.27;;
4434;SDS011;46552;52.150;8.428;2023-04-24T02:30:00;3.83;;;1.30;;
4434;SDS011;46552;52.150;8.428;2023-04-24T02:32:29;3.70;;;2.10;;
4434;SDS011;46552;52.150;8.428;2023-04-24T02:34:59;3.17;;;2.03;;
4434;SDS011;46552;52.150;8.428;2023-04-24T02:37:26;3.60;;;1.57;;
4434;SDS011;46552;52.150;8.428;2023-04-24T02:39:53;3.47;;;1.70;;
4434;SDS011;46552;52.150;8.428;2023-04-24T02:42:20;5.63;;;2.60;;
4434;SDS011;46552;52.150;8.428;2023-04-24T02:44:47;3.93;;;2.47;;
4434;SDS011;46552;52.150;8.428;2023-04-24T02:47:16;4.57;;;2.30;;
4434;SDS011;46552;52.150;8.428;2023-04-24T02:49:46;3.00;;;1.67;;
4434;SDS011;46552;52.150;8.428;2023-04-24T02:52:13;3.60;;;1.90;;
4434;SDS011;46552;52.150;8.428;2023-04-24T02:54:41;6.27;;;2.80;;
4434;SDS011;46552;52.150;8.428;2023-04-24T02:57:09;5.83;;;2.60;;
4434;SDS011;46552;52.150;8.428;2023-04-24T02:59:36;4.50;;;2.40;;
4434;SDS011;46552;52.150;8.428;2023-04-24T03:02:03;5.40;;;2.43;;
4434;SDS011;46552;52.150;8.428;2023-04-24T03:04:30;4.07;;;2.50;;
4434;SDS011;46552;52.150;8.428;2023-04-24T03:06:59;4.50;;;2.30;;
4434;SDS011;46552;52.150;8.428;2023-04-24T03:09:26;5.27;;;3.07;;
4434;SDS011;46552;52.150;8.428;2023-04-24T03:11:54;4.30;;;2.50;;
4434;SDS011;46552;52.150;8.428;2023-04-24T03:14:21;6.93;;;2.60;;
4434;SDS011;46552;52.150;8.428;2023-04-24T03:16:48;3.73;;;2.43;;
4434;SDS011;46552;52.150;8.428;2023-04-24T03:19:15;8.43;;;2.60;;
4434;SDS011;46552;52.150;8.428;2023-04-24T03:21:42;12.57;;;2.87;;
4434;SDS011;46552;52.150;8.428;2023-04-24T03:24:11;4.50;;;2.70;;
4434;SDS011;46552;52.150;8.428;2023-04-24T03:26:38;6.17;;;3.23;;
4434;SDS011;46552;52.150;8.428;2023-04-24T03:29:06;9.33;;;2.40;;
4434;SDS011;46552;52.150;8.428;2023-04-24T03:31:33;4.17;;;1.90;;
4434;SDS011;46552;52.150;8.428;2023-04-24T03:34:00;7.30;;;3.10;;
4434;SDS011;46552;52.150;8.428;2023-04-24T03:36:28;7.70;;;2.20;;
4434;SDS011;46552;52.150;8.428;2023-04-24T03:38:56;6.13;;;2.60;;
4434;SDS011;46552;52.150;8.428;2023-04-24T03:41:24;7.50;;;3.40;;
4434;SDS011;46552;52.150;8.428;2023-04-24T03:43:51;9.03;;;2.77;;
4434;SDS011;46552;52.150;8.428;2023-04-24T03:46:18;6.80;;;3.10;;
4434;SDS011;46552;52.150;8.428;2023-04-24T03:48:46;5.37;;;3.30;;
4434;SDS011;46552;52.150;8.428;2023-04-24T03:51:13;9.80;;;3.17;;
4434;SDS011;46552;52.150;8.428;2023-04-24T03:53:40;4.40;;;2.40;;
4434;SDS011;46552;52.150;8.428;2023-04-24T03:56:08;7.10;;;2.83;;
4434;SDS011;46552;52.150;8.428;2023-04-24T03:58:36;5.23;;;3.03;;
4434;SDS011;46552;52.150;8.428;2023-04-24T04:01:03;5.07;;;3.20;;
4434;SDS011;46552;52.150;8.428;2023-04-24T04:03:31;7.83;;;4.00;;
4434;SDS011;46552;52.150;8.428;2023-04-24T04:05:58;6.00;;;3.60;;
4434;SDS011;46552;52.150;8.428;2023-04-24T04:08:26;6.23;;;3.43;;
4434;SDS011;46552;52.150;8.428;2023-04-24T04:10:53;6.47;;;3.17;;
4434;SDS011;46552;52.150;8.428;2023-04-24T04:13:20;4.77;;;2.43;;
4434;SDS011;46552;52.150;8.428;2023-04-24T04:15:49;4.90;;;3.23;;
4434;SDS011;46552;52.150;8.428;2023-04-24T04:18:16;14.40;;;3.53;;
4434;SDS011;46552;52.150;8.428;2023-04-24T04:20:43;7.30;;;3.77;;
4434;SDS011;46552;52.150;8.428;2023-04-24T04:23:10;7.23;;;4.00;;
4434;SDS011;46552;52.150;8.428;2023-04-24T04:25:38;7.07;;;4.03;;
4434;SDS011;46552;52.150;8.428;2023-04-24T04:28:06;6.80;;;2.90;;
4434;SDS011;46552;52.150;8.428;2023-04-24T04:30:33;7.00;;;4.40;;
4434;SDS011;46552;52.150;8.428;2023-04-24T04:33:06;11.10;;;5.30;;
4434;SDS011;46552;52.150;8.428;2023-04-24T04:35:38;7.57;;;3.70;;
4434;SDS011;46552;52.150;8.428;2023-04-24T04:38:06;6.00;;;3.00;;
4434;SDS011;46552;52.150;8.428;2023-04-24T04:40:33;10.00;;;3.90;;
4434;SDS011;46552;52.150;8.428;2023-04-24T04:43:01;8.90;;;5.80;;
4434;SDS011;46552;52.150;8.428;2023-04-24T04:45:29;18.73;;;7.17;;
4434;SDS011;46552;52.150;8.428;2023-04-24T04:47:57;14.50;;;9.20;;
4434;SDS011;46552;52.150;8.428;2023-04-24T04:50:27;14.03;;;9.50;;
4434;SDS011;46552;52.150;8.428;2023-04-24T04:52:55;14.50;;;10.03;;
4434;SDS011;46552;52.150;8.428;2023-04-24T04:55:22;21.60;;;12.00;;
4434;SDS011;46552;52.150;8.428;2023-04-24T04:57:49;22.07;;;12.37;;
4434;SDS011;46552;52.150;8.428;2023-04-24T05:00:17;19.23;;;11.67;;
4434;SDS011;46552;52.150;8.428;2023-04-24T05:02:44;19.60;;;12.73;;
4434;SDS011;46552;52.150;8.428;2023-04-24T05:05:12;19.13;;;13.30;;
4434;SDS011;46552;52.150;8.428;2023-04-24T05:07:41;20.63;;;12.37;;
4434;SDS011;46552;52.150;8.428;2023-04-24T05:10:09;26.50;;;14.33;;
4434;SDS011;46552;52.150;8.428;2023-04-24T05:12:36;21.70;;;13.83;;
4434;SDS011;46552;52.150;8.428;2023-04-24T05:15:03;17.27;;;11.33;;
4434;SDS011;46552;52.150;8.428;2023-04-24T05:17:31;19.57;;;12.93;;
4434;SDS011;46552;52.150;8.428;2023-04-24T05:19:58;22.23;;;11.73;;
4434;SDS011;46552;52.150;8.428;2023-04-24T05:22:25;19.67;;;12.40;;
4434;SDS011;46552;52.150;8.428;2023-04-24T05:24:54;26.03;;;11.67;;
4434;SDS011;46552;52.150;8.428;2023-04-24T05:27:21;21.03;;;12.40;;
4434;SDS011;46552;52.150;8.428;2023-04-24T05:29:48;25.43;;;14.47;;
4434;SDS011;46552;52.150;8.428;2023-04-24T05:32:16;28.60;;;13.30;;
4434;SDS011;46552;52.150;8.428;2023-04-24T05:34:43;18.67;;;11.03;;
4434;SDS011;46552;52.150;8.428;2023-04-24T05:37:11;19.93;;;11.50;;
4434;SDS011;46552;52.150;8.428;2023-04-24T05:39:38;22.93;;;12.63;;
4434;SDS011;46552;52.150;8.428;2023-04-24T05:42:08;21.33;;;13.70;;
4434;SDS011;46552;52.150;8.428;2023-04-24T05:44:35;20.70;;;12.00;;
4434;SDS011;46552;52.150;8.428;2023-04-24T05:47:02;29.57;;;12.83;;
4434;SDS011;46552;52.150;8.428;2023-04-24T05:49:30;22.10;;;13.60;;
4434;SDS011;46552;52.150;8.428;2023-04-24T05:51:57;27.70;;;14.57;;
4434;SDS011;46552;52.150;8.428;2023-04-24T05:54:24;22.53;;;14.13;;
4434;SDS011;46552;52.150;8.428;2023-04-24T05:56:51;24.07;;;13.60;;
4434;SDS011;46552;52.150;8.428;2023-04-24T05:59:21;22.97;;;13.53;;
4434;SDS011;46552;52.150;8.428;2023-04-24T06:01:48;30.67;;;14.20;;
4434;SDS011;46552;52.150;8.428;2023-04-24T06:04:15;23.00;;;13.27;;
4434;SDS011;46552;52.150;8.428;2023-04-24T06:06:42;19.10;;;13.37;;
4434;SDS011;46552;52.150;8.428;2023-04-24T06:09:09;21.80;;;12.93;;
4434;SDS011;46552;52.150;8.428;2023-04-24T06:11:37;22.63;;;13.47;;
4434;SDS011;46552;52.150;8.428;2023-04-24T06:14:05;23.20;;;13.07;;
4434;SDS011;46552;52.150;8.428;2023-04-24T06:16:34;23.17;;;14.20;;
4434;SDS011;46552;52.150;8.428;2023-04-24T06:19:01;26.80;;;15.07;;
4434;SDS011;46552;52.150;8.428;2023-04-24T06:21:29;20.87;;;12.97;;
4434;SDS011;46552;52.150;8.428;2023-04-24T06:23:56;30.77;;;14.77;;
4434;SDS011;46552;52.150;8.428;2023-04-24T06:26:23;23.20;;;13.77;;
4434;SDS011;46552;52.150;8.428;2023-04-24T06:28:51;31.53;;;14.97;;
4434;SDS011;46552;52.150;8.428;2023-04-24T06:31:19;24.93;;;15.53;;
4434;SDS011;46552;52.150;8.428;2023-04-24T06:33:47;24.60;;;14.30;;
4434;SDS011;46552;52.150;8.428;2023-04-24T06:36:15;20.67;;;12.80;;
4434;SDS011;46552;52.150;8.428;2023-04-24T06:38:43;24.13;;;14.17;;
4434;SDS011;46552;52.150;8.428;2023-04-24T06:41:12;26.07;;;14.33;;
4434;SDS011;46552;52.150;8.428;2023-04-24T06:43:40;23.70;;;14.37;;
4434;SDS011;46552;52.150;8.428;2023-04-24T06:46:07;28.97;;;15.07;;
4434;SDS011;46552;52.150;8.428;2023-04-24T06:48:34;20.60;;;12.67;;
4434;SDS011;46552;52.150;8.428;2023-04-24T06:51:02;23.53;;;13.80;;
4434;SDS011;46552;52.150;8.428;2023-04-24T06:53:30;24.50;;;15.13;;
4434;SDS011;46552;52.150;8.428;2023-04-24T06:55:59;25.60;;;14.03;;
4434;SDS011;46552;52.150;8.428;2023-04-24T06:58:26;23.80;;;15.40;;
4434;SDS011;46552;52.150;8.428;2023-04-24T07:00:53;27.70;;;14.50;;
4434;SDS011;46552;52.150;8.428;2023-04-24T07:03:20;25.63;;;15.10;;
4434;SDS011;46552;52.150;8.428;2023-04-24T07:05:47;27.83;;;14.00;;
4434;SDS011;46552;52.150;8.428;2023-04-24T07:08:17;23.13;;;13.90;;
4434;SDS011;46552;52.150;8.428;2023-04-24T07:10:45;22.07;;;13.80;;
4434;SDS011;46552;52.150;8.428;2023-04-24T07:13:13;22.30;;;13.90;;
4434;SDS011;46552;52.150;8.428;2023-04-24T07:15:40;22.87;;;14.50;;
4434;SDS011;46552;52.150;8.428;2023-04-24T07:18:07;27.90;;;15.83;;
4434;SDS011;46552;52.150;8.428;2023-04-24T07:20:34;22.47;;;13.50;;
4434;SDS011;46552;52.150;8.428;2023-04-24T07:23:01;22.30;;;13.00;;
4434;SDS011;46552;52.150;8.428;2023-04-24T07:25:30;20.57;;;12.63;;
4434;SDS011;46552;52.150;8.428;2023-04-24T07:27:57;19.97;;;13.93;;
4434;SDS011;46552;52.150;8.428;2023-04-24T07:30:25;33.43;;;14.03;;
4434;SDS011;46552;52.150;8.428;2023-04-24T07:32:55;19.40;;;12.50;;
4434;SDS011;46552;52.150;8.428;2023-04-24T07:35:22;21.40;;;12.03;;
4434;SDS011;46552;52.150;8.428;2023-04-24T07:37:50;19.70;;;14.00;;
4434;SDS011;46552;52.150;8.428;2023-04-24T07:40:17;21.43;;;13.70;;
4434;SDS011;46552;52.150;8.428;2023-04-24T07:42:46;22.70;;;13.10;;
4434;SDS011;46552;52.150;8.428;2023-04-24T07:45:14;21.83;;;13.03;;
4434;SDS011;46552;52.150;8.428;2023-04-24T07:47:41;21.67;;;13.47;;
4434;SDS011;46552;52.150;8.428;2023-04-24T07:50:10;18.10;;;12.10;;
4434;SDS011;46552;52.150;8.428;2023-04-24T07:52:38;20.03;;;13.30;;
4434;SDS011;46552;52.150;8.428;2023-04-24T07:55:05;23.67;;;13.90;;
4434;SDS011;46552;52.150;8.428;2023-04-24T07:57:33;16.80;;;11.00;;
4434;SDS011;46552;52.150;8.428;2023-04-24T08:00:02;18.67;;;11.20;;
4434;SDS011;46552;52.150;8.428;2023-04-24T08:02:30;15.53;;;9.23;;
4434;SDS011;46552;52.150;8.428;2023-04-24T08:04:58;17.37;;;9.70;;
4434;SDS011;46552;52.150;8.428;2023-04-24T08:07:25;12.73;;;8.97;;
4434;SDS011;46552;52.150;8.428;2023-04-24T08:09:52;15.60;;;9.50;;
4434;SDS011;46552;52.150;8.428;2023-04-24T08:12:19;17.87;;;9.87;;
4434;SDS011;46552;52.150;8.428;2023-04-24T08:14:46;12.43;;;9.17;;
4434;SDS011;46552;52.150;8.428;2023-04-24T08:17:15;12.00;;;8.27;;
4434;SDS011;46552;52.150;8.428;2023-04-24T08:19:43;12.80;;;9.00;;
4434;SDS011;46552;52.150;8.428;2023-04-24T08:22:13;16.07;;;8.87;;
4434;SDS011;46552;52.150;8.428;2023-04-24T08:24:40;11.57;;;8.37;;
4434;SDS011;46552;52.150;8.428;2023-04-24T08:27:09;14.30;;;7.97;;
4434;SDS011;46552;52.150;8.428;2023-04-24T08:29:36;11.10;;;7.50;;
4434;SDS011;46552;52.150;8.428;2023-04-24T08:32:03;9.57;;;6.60;;
4434;SDS011;46552;52.150;8.428;2023-04-24T08:34:34;10.33;;;7.37;;
4434;SDS011;46552;52.150;8.428;2023-04-24T08:37:01;9.90;;;6.30;;
4434;SDS011;46552;52.150;8.428;2023-04-24T08:39:30;14.10;;;7.40;;
4434;SDS011;46552;52.150;8.428;2023-04-24T08:41:57;11.73;;;6.93;;
4434;SDS011;46552;52.150;8.428;2023-04-24T08:44:33;10.13;;;6.00;;
4434;SDS011;46552;52.150;8.428;2023-04-24T08:47:02;9.33;;;6.13;;
4434;SDS011;46552;52.150;8.428;2023-04-24T08:49:29;11.40;;;6.43;;
4434;SDS011;46552;52.150;8.428;2023-04-24T08:51:59;9.17;;;6.10;;
4434;SDS011;46552;52.150;8.428;2023-04-24T08:54:28;7.57;;;5.80;;
4434;SDS011;46552;52.150;8.428;2023-04-24T08:56:56;6.90;;;5.20;;
4434;SDS011;46552;52.150;8.428;2023-04-24T08:59:26;7.70;;;5.53;;
4434;SDS011;46552;52.150;8.428;2023-04-24T09:01:54;10.53;;;5.63;;
4434;SDS011;46552;52.150;8.428;2023-04-24T09:04:22;12.33;;;6.40;;
4434;SDS011;46552;52.150;8.428;2023-04-24T09:06:50;9.50;;;5.50;;
4434;SDS011;46552;52.150;8.428;2023-04-24T09:09:19;8.80;;;5.07;;
4434;SDS011;46552;52.150;8.428;2023-04-24T09:11:47;6.93;;;4.57;;
4434;SDS011;46552;52.150;8.428;2023-04-24T09:14:16;7.43;;;5.13;;
4434;SDS011;46552;52.150;8.428;2023-04-24T09:16:43;6.77;;;4.47;;
4434;SDS011;46552;52.150;8.428;2023-04-24T09:19:10;5.70;;;4.80;;
4434;SDS011;46552;52.150;8.428;2023-04-24T09:21:38;8.97;;;5.50;;
4434;SDS011;46552;52.150;8.428;2023-04-24T09:24:07;8.70;;;5.20;;
4434;SDS011;46552;52.150;8.428;2023-04-24T09:26:44;12.43;;;4.60;;
4434;SDS011;46552;52.150;8.428;2023-04-24T09:29:14;6.60;;;4.30;;
4434;SDS011;46552;52.150;8.428;2023-04-24T09:31:42;7.67;;;4.30;;
4434;SDS011;46552;52.150;8.428;2023-04-24T09:34:20;8.60;;;5.57;;
4434;SDS011;46552;52.150;8.428;2023-04-24T09:36:49;6.60;;;4.97;;
4434;SDS011;46552;52.150;8.428;2023-04-24T09:39:17;6.43;;;4.73;;
4434;SDS011;46552;52.150;8.428;2023-04-24T09:41:47;12.93;;;5.13;;
4434;SDS011;46552;52.150;8.428;2023-04-24T09:44:16;6.33;;;4.50;;
4434;SDS011;46552;52.150;8.428;2023-04-24T09:46:50;5.20;;;3.70;;
4434;SDS011;46552;52.150;8.428;2023-04-24T09:49:21;7.90;;;3.67;;
4434;SDS011;46552;52.150;8.428;2023-04-24T09:51:50;10.77;;;4.03;;
4434;SDS011;46552;52.150;8.428;2023-04-24T09:54:18;5.33;;;4.20;;
4434;SDS011;46552;52.150;8.428;2023-04-24T09:56:48;6.00;;;3.93;;
4434;SDS011;46552;52.150;8.428;2023-04-24T09:59:17;12.87;;;3.70;;
4434;SDS011;46552;52.150;8.428;2023-04-24T10:01:44;8.13;;;3.00;;
4434;SDS011;46552;52.150;8.428;2023-04-24T10:04:17;5.43;;;2.23;;
4434;SDS011;46552;52.150;8.428;2023-04-24T10:06:45;9.63;;;3.27;;
4434;SDS011;46552;52.150;8.428;2023-04-24T10:09:14;9.27;;;3.10;;
4434;SDS011;46552;52.150;8.428;2023-04-24T10:11:42;6.73;;;3.57;;
4434;SDS011;46552;52.150;8.428;2023-04-24T10:14:12;6.10;;;4.07;;
4434;SDS011;46552;52.150;8.428;2023-04-24T10:16:40;7.27;;;4.30;;
4434;SDS011;46552;52.150;8.428;2023-04-24T10:19:09;5.03;;;3.47;;
4434;SDS011;46552;52.150;8.428;2023-04-24T10:21:38;5.50;;;3.53;;
4434;SDS011;46552;52.150;8.428;2023-04-24T10:24:11;5.90;;;3.73;;
4434;SDS011;46552;52.150;8.428;2023-04-24T10:26:40;5.60;;;3.90;;
4434;SDS011;46552;52.150;8.428;2023-04-24T10:29:07;6.53;;;4.80;;
4434;SDS011;46552;52.150;8.428;2023-04-24T10:31:39;13.60;;;5.80;;
4434;SDS011;46552;52.150;8.428;2023-04-24T10:34:08;7.73;;;5.67;;
4434;SDS011;46552;52.150;8.428;2023-04-24T10:36:36;8.13;;;5.30;;
4434;SDS011;46552;52.150;8.428;2023-04-24T10:39:09;5.80;;;4.53;;
4434;SDS011;46552;52.150;8.428;2023-04-24T10:41:39;7.10;;;5.70;;
4434;SDS011;46552;52.150;8.428;2023-04-24T10:44:08;6.07;;;4.70;;
4434;SDS011;46552;52.150;8.428;2023-04-24T10:46:43;8.03;;;4.90;;
4434;SDS011;46552;52.150;8.428;2023-04-24T10:49:12;6.93;;;4.90;;
4434;SDS011;46552;52.150;8.428;2023-04-24T10:51:44;5.97;;;4.70;;
4434;SDS011;46552;52.150;8.428;2023-04-24T10:54:26;5.67;;;4.83;;
4434;SDS011;46552;52.150;8.428;2023-04-24T10:57:25;6.40;;;5.57;;
4434;SDS011;46552;52.150;8.428;2023-04-24T11:00:10;6.90;;;5.37;;
4434;SDS011;46552;52.150;8.428;2023-04-24T11:02:42;6.07;;;5.03;;
4434;SDS011;46552;52.150;8.428;2023-04-24T11:05:14;7.30;;;5.80;;
4434;SDS011;46552;52.150;8.428;2023-04-24T11:10:38;5.63;;;5.03;;
4434;SDS011;46552;52.150;8.428;2023-04-24T11:13:07;10.63;;;4.23;;
4434;SDS011;46552;52.150;8.428;2023-04-24T11:15:34;6.10;;;3.77;;
4434;SDS011;46552;52.150;8.428;2023-04-24T11:18:03;4.97;;;4.20;;
4434;SDS011;46552;52.150;8.428;2023-04-24T11:20:30;6.60;;;4.40;;
4434;SDS011;46552;52.150;8.428;2023-04-24T11:23:00;5.57;;;4.50;;
4434;SDS011;46552;52.150;8.428;2023-04-24T11:25:31;5.00;;;3.30;;
4434;SDS011;46552;52.150;8.428;2023-04-24T11:28:05;5.03;;;3.20;;
4434;SDS011;46552;52.150;8.428;2023-04-24T11:30:33;4.37;;;3.37;;
4434;SDS011;46552;52.150;8.428;2023-04-24T11:33:05;4.57;;;2.90;;
4434;SDS011;46552;52.150;8.428;2023-04-24T11:35:34;4.00;;;2.53;;
4434;SDS011;46552;52.150;8.428;2023-04-24T11:38:05;4.37;;;3.33;;
4434;SDS011;46552;52.150;8.428;2023-04-24T11:40:33;4.60;;;2.70;;
4434;SDS011;46552;52.150;8.428;2023-04-24T11:43:01;3.37;;;2.30;;
4434;SDS011;46552;52.150;8.428;2023-04-24T11:45:31;3.40;;;1.83;;
4434;SDS011;46552;52.150;8.428;2023-04-24T11:47:58;3.00;;;1.37;;
4434;SDS011;46552;52.150;8.428;2023-04-24T11:50:27;3.30;;;1.23;;
4434;SDS011;46552;52.150;8.428;2023-04-24T11:52:55;2.83;;;1.00;;
4434;SDS011;46552;52.150;8.428;2023-04-24T11:55:23;2.10;;;0.80;;
4434;SDS011;46552;52.150;8.428;2023-04-24T11:57:53;2.53;;;0.90;;
4434;SDS011;46552;52.150;8.428;2023-04-24T12:00:23;2.77;;;1.13;;
4434;SDS011;46552;52.150;8.428;2023-04-24T12:03:02;2.73;;;1.40;;
4434;SDS011;46552;52.150;8.428;2023-04-24T12:05:33;2.50;;;1.10;;
4434;SDS011;46552;52.150;8.428;2023-04-24T12:08:01;5.80;;;1.13;;
4434;SDS011;46552;52.150;8.428;2023-04-24T12:10:28;2.83;;;1.43;;
4434;SDS011;46552;52.150;8.428;2023-04-24T12:12:56;4.50;;;1.93;;
4434;SDS011;46552;52.150;8.428;2023-04-24T12:15:25;4.43;;;1.70;;
4434;SDS011;46552;52.150;8.428;2023-04-24T12:17:55;4.30;;;2.03;;
4434;SDS011;46552;52.150;8.428;2023-04-24T12:20:26;5.83;;;2.60;;
4434;SDS011;46552;52.150;8.428;2023-04-24T12:22:56;5.57;;;2.43;;
4434;SDS011;46552;52.150;8.428;2023-04-24T12:25:25;4.27;;;2.00;;
4434;SDS011;46552;52.150;8.428;2023-04-24T12:27:53;6.20;;;3.00;;
4434;SDS011;46552;52.150;8.428;2023-04-24T12:30:26;9.70;;;3.60;;
4434;SDS011;46552;52.150;8.428;2023-04-24T12:32:56;8.80;;;3.60;;
4434;SDS011;46552;52.150;8.428;2023-04-24T12:35:25;5.30;;;3.17;;
4434;SDS011;46552;52.150;8.428;2023-04-24T12:37:56;5.07;;;2.87;;
4434;SDS011;46552;52.150;8.428;2023-04-24T12:40:33;7.87;;;3.50;;
4434;SDS011;46552;52.150;8.428;2023-04-24T12:43:00;7.10;;;4.53;;
4434;SDS011;46552;52.150;8.428;2023-04-24T12:45:27;9.57;;;4.97;;
4434;SDS011;46552;52.150;8.428;2023-04-24T12:47:54;11.83;;;5.27;;
4434;SDS011;46552;52.150;8.428;2023-04-24T12:50:21;7.97;;;4.80;;
4434;SDS011;46552;52.150;8.428;2023-04-24T12:52:49;8.07;;;5.43;;
4434;SDS011;46552;52.150;8.428;2023-04-24T12:55:17;11.87;;;4.93;;
4434;SDS011;46552;52.150;8.428;2023-04-24T12:57:44;15.40;;;6.37;;
4434;SDS011;46552;52.150;8.428;2023-04-24T13:00:12;11.97;;;4.70;;
4434;SDS011;46552;52.150;8.428;2023-04-24T13:02:40;8.10;;;4.70;;
4434;SDS011;46552;52.150;8.428;2023-04-24T13:05:08;9.33;;;5.03;;
4434;SDS011;46552;52.150;8.428;2023-04-24T13:07:36;10.67;;;5.40;;
4434;SDS011;46552;52.150;8.428;2023-04-24T13:10:04;11.10;;;6.10;;
4434;SDS011;46552;52.150;8.428;2023-04-24T13:12:34;11.67;;;3.73;;
4434;SDS011;46552;52.150;8.428;2023-04-24T13:15:01;7.77;;;4.07;;
4434;SDS011;46552;52.150;8.428;2023-04-24T13:17:29;6.83;;;3.67;;
4434;SDS011;46552;52.150;8.428;2023-04-24T13:19:57;8.30;;;4.10;;
4434;SDS011;46552;52.150;8.428;2023-04-24T13:22:24;10.07;;;4.07;;
4434;SDS011;46552;52.150;8.428;2023-04-24T13:24:52;12.30;;;3.90;;
4434;SDS011;46552;52.150;8.428;2023-04-24T13:27:19;12.40;;;3.73;;
4434;SDS011;46552;52.150;8.428;2023-04-24T13:29:48;11.07;;;4.80;;
4434;SDS011;46552;52.150;8.428;2023-04-24T13:32:16;8.90;;;3.80;;
4434;SDS011;46552;52.150;8.428;2023-04-24T13:34:44;6.70;;;3.50;;
4434;SDS011;46552;52.150;8.428;2023-04-24T13:37:12;12.73;;;3.90;;
4434;SDS011;46552;52.150;8.428;2023-04-24T13:39:40;13.17;;;4.60;;
4434;SDS011;46552;52.150;8.428;2023-04-24T13:42:07;7.63;;;4.20;;
4434;SDS011;46552;52.150;8.428;2023-04-24T13:44:35;16.70;;;4.63;;
4434;SDS011;46552;52.150;8.428;2023-04-24T13:47:06;13.47;;;4.73;;
4434;SDS011;46552;52.150;8.428;2023-04-24T13:49:33;9.97;;;4.10;;
4434;SDS011;46552;52.150;8.428;2023-04-24T13:52:00;9.93;;;4.40;;
4434;SDS011;46552;52.150;8.428;2023-04-24T13:54:27;7.73;;;4.53;;
4434;SDS011;46552;52.150;8.428;2023-04-24T13:56:55;15.00;;;6.00;;
4434;SDS011;46552;52.150;8.428;2023-04-24T13:59:24;16.10;;;5.60;;
4434;SDS011;46552;52.150;8.428;2023-04-24T14:01:51;14.87;;;5.57;;
4434;SDS011;46552;52.150;8.428;2023-04-24T14:04:19;17.93;;;5.27;;
4434;SDS011;46552;52.150;8.428;2023-04-24T14:06:46;16.50;;;6.40;;
4434;SDS011;46552;52.150;8.428;2023-04-24T14:09:15;15.70;;;6.33;;
4434;SDS011;46552;52.150;8.428;2023-04-24T14:11:42;17.93;;;6.97;;
4434;SDS011;46552;52.150;8.428;2023-04-24T14:14:09;14.40;;;6.47;;
4434;SDS011;46552;52.150;8.428;2023-04-24T14:16:36;18.40;;;6.73;;
4434;SDS011;46552;52.150;8.428;2023-04-24T14:19:04;19.90;;;5.63;;
4434;SDS011;46552;52.150;8.428;2023-04-24T14:21:33;15.90;;;7.03;;
4434;SDS011;46552;52.150;8.428;2023-04-24T14:24:01;13.33;;;7.33;;
4434;SDS011;46552;52.150;8.428;2023-04-24T14:26:28;17.90;;;7.57;;
4434;SDS011;46552;52.150;8.428;2023-04-24T14:28:55;17.53;;;6.10;;
4434;SDS011;46552;52.150;8.428;2023-04-24T14:31:23;25.67;;;7.83;;
4434;SDS011;46552;52.150;8.428;2023-04-24T14:33:50;16.83;;;6.33;;
4434;SDS011;46552;52.150;8.428;2023-04-24T14:36:18;11.17;;;6.30;;
4434;SDS011;46552;52.150;8.428;2023-04-24T14:38:46;19.33;;;6.47;;
4434;SDS011;46552;52.150;8.428;2023-04-24T14:41:14;17.80;;;6.30;;
4434;SDS011;46552;52.150;8.428;2023-04-24T14:43:41;24.60;;;7.10;;
4434;SDS011;46552;52.150;8.428;2023-04-24T14:46:08;14.47;;;6.63;;
4434;SDS011;46552;52.150;8.428;2023-04-24T14:48:35;19.70;;;6.70;;
4434;SDS011;46552;52.150;8.428;2023-04-24T14:51:02;14.73;;;5.60;;
4434;SDS011;46552;52.150;8.428;2023-04-24T14:53:30;14.60;;;6.90;;
4434;SDS011;46552;52.150;8.428;2023-04-24T14:55:59;20.40;;;5.90;;
4434;SDS011;46552;52.150;8.428;2023-04-24T14:58:26;17.13;;;6.43;;
4434;SDS011;46552;52.150;8.428;2023-04-24T15:00:53;12.73;;;5.63;;
4434;SDS011;46552;52.150;8.428;2023-04-24T15:03:20;31.33;;;7.90;;